LDRI/RJK METAR and TAF weather

Enter ICAO airport designator
Station Type Date Time Source
LDRI METAR 2019/05/25 09:00 UTC NOAA

LDRI 250900Z 10005KT 040V150 9999 FEW043 22/11 Q1015


Station Type Date Time Source
LDRI Decoded METAR 2019/05/25 09:00 UTC NOAA

Rijeka / Omisalj, Croatia (LDRI) 45-13N 014-35E
May 25, 2019 - 05:00 AM EDT / 2019.05.25 0900 UTC
Wind: from the E (100 degrees) at 6 MPH (5 KT) (direction variable):0
Visibility: greater than 7 mile(s):0
Sky conditions: mostly clear
Temperature: 71 F (22 C)
Dew Point: 51 F (11 C)
Relative Humidity: 49%
Pressure (altimeter): 29.97 in. Hg (1015 hPa)
ob: LDRI 250900Z 10005KT 040V150 9999 FEW043 22/11 Q1015
cycle: 9

Station Type Date Time Source
LDRI TAF 2019/05/25 06:27 UTC NOAA

TAF LDRI 250525Z 2506/2606 VRB02KT CAVOK TX24/2512Z TN15/2602Z

Example: see airport list